createdAt,value
2017-04-08T00:00:33.940Z,61.00
2017-04-08T00:01:33.289Z,61.00
2017-04-08T00:02:32.600Z,61.10
2017-04-08T00:03:31.899Z,61.20
2017-04-08T00:04:31.201Z,60.80
2017-04-08T00:05:30.594Z,60.80
2017-04-08T00:06:30.688Z,61.80
2017-04-08T00:07:29.999Z,60.90
2017-04-08T00:08:30.029Z,61.60
2017-04-08T00:09:30.071Z,61.00
2017-04-08T00:10:29.333Z,61.10
2017-04-08T00:11:28.749Z,61.70
2017-04-08T00:12:28.045Z,61.10
2017-04-08T00:13:27.414Z,61.10
2017-04-08T00:14:26.657Z,61.30
2017-04-08T00:15:25.956Z,61.20
2017-04-08T00:16:26.008Z,61.10
2017-04-08T00:17:25.279Z,61.20
2017-04-08T00:18:25.291Z,61.30
2017-04-08T00:19:24.554Z,61.90
2017-04-08T00:20:24.558Z,62.00
2017-04-08T00:21:23.826Z,61.50
2017-04-08T00:22:23.085Z,61.50
2017-04-08T00:23:22.364Z,61.60
2017-04-08T00:24:21.673Z,61.50
2017-04-08T00:25:20.912Z,61.40
2017-04-08T00:26:20.249Z,61.50
2017-04-08T00:27:19.521Z,61.60
2017-04-08T00:28:18.810Z,61.60
2017-04-08T00:29:18.830Z,61.30
2017-04-08T00:30:18.209Z,61.50
2017-04-08T00:31:18.248Z,61.50
2017-04-08T00:32:17.539Z,61.60
2017-04-08T00:33:16.902Z,61.60
2017-04-08T00:34:16.157Z,62.50
2017-04-08T00:35:15.441Z,61.60
2017-04-08T00:36:14.676Z,61.70
2017-04-08T00:37:13.907Z,62.10
2017-04-08T00:38:13.159Z,61.60
2017-04-08T00:39:12.409Z,61.70
2017-04-08T00:40:11.677Z,61.90
2017-04-08T00:41:10.908Z,61.50
2017-04-08T00:42:11.049Z,61.50
2017-04-08T00:43:10.334Z,61.40
2017-04-08T00:44:09.882Z,61.30
2017-04-08T00:45:09.209Z,61.50
2017-04-08T00:46:08.456Z,61.80
2017-04-08T00:47:07.718Z,61.40
2017-04-08T00:48:06.981Z,61.60
2017-04-08T00:49:06.222Z,61.60
2017-04-08T00:50:05.495Z,61.80
2017-04-08T00:51:04.821Z,61.70
2017-04-08T00:52:04.144Z,61.70
2017-04-08T00:53:03.426Z,61.90
2017-04-08T00:54:03.461Z,61.80
2017-04-08T00:55:02.736Z,61.80
2017-04-08T00:56:01.990Z,61.80
2017-04-08T00:57:01.214Z,61.80
2017-04-08T00:58:00.457Z,62.10
2017-04-08T00:58:59.714Z,62.00
2017-04-08T00:59:58.970Z,62.10
2017-04-08T01:01:04.274Z,61.70
2017-04-08T01:02:06.729Z,61.90
2017-04-08T01:03:05.982Z,61.50
2017-04-08T01:04:05.261Z,61.50
2017-04-08T01:05:04.586Z,61.40
2017-04-08T01:06:03.884Z,61.30
2017-04-08T01:07:03.201Z,61.40
2017-04-08T01:08:02.475Z,61.50
2017-04-08T01:09:01.726Z,61.60
2017-04-08T01:10:00.992Z,61.60
2017-04-08T01:11:01.049Z,61.80
2017-04-08T01:12:01.037Z,61.60
2017-04-08T01:13:00.310Z,61.80
2017-04-08T01:13:59.641Z,61.90
2017-04-08T01:14:58.901Z,62.00
2017-04-08T01:15:58.194Z,62.00
2017-04-08T01:16:57.521Z,62.20
2017-04-08T01:17:56.746Z,62.20
2017-04-08T01:18:56.738Z,62.20
2017-04-08T01:19:56.741Z,62.50
2017-04-08T01:20:56.005Z,62.20
2017-04-08T01:21:55.354Z,62.20
2017-04-08T01:22:54.637Z,62.20
2017-04-08T01:23:54.727Z,62.20
2017-04-08T01:24:53.997Z,62.20
2017-04-08T01:25:53.265Z,62.20
2017-04-08T01:26:52.534Z,62.20
2017-04-08T01:27:51.797Z,62.20
2017-04-08T01:28:51.799Z,62.20
2017-04-08T01:29:51.841Z,62.90
2017-04-08T01:30:51.119Z,62.30
2017-04-08T01:31:50.388Z,62.80
2017-04-08T01:32:50.429Z,62.60
2017-04-08T01:33:49.685Z,62.40
2017-04-08T01:34:49.677Z,62.60
2017-04-08T01:35:49.002Z,62.50
2017-04-08T01:36:49.017Z,62.40
2017-04-08T01:37:48.313Z,62.50
2017-04-08T01:38:47.609Z,62.30
2017-04-08T01:39:46.962Z,62.50
2017-04-08T01:40:46.241Z,62.30
2017-04-08T01:41:45.482Z,62.80
2017-04-08T01:42:44.725Z,62.70
2017-04-08T01:43:44.010Z,62.60
2017-04-08T01:44:43.245Z,62.30
2017-04-08T01:45:42.548Z,62.60
2017-04-08T01:46:41.889Z,62.60
2017-04-08T01:47:41.126Z,62.60
2017-04-08T01:48:40.373Z,62.80
2017-04-08T01:49:39.643Z,62.80
2017-04-08T01:50:38.919Z,62.60
2017-04-08T01:51:38.229Z,63.00
2017-04-08T01:52:37.504Z,63.00
2017-04-08T01:53:36.757Z,62.90
2017-04-08T01:54:36.267Z,62.90
2017-04-08T01:55:35.593Z,62.90
2017-04-08T01:56:34.929Z,63.10
2017-04-08T01:57:34.195Z,63.10
2017-04-08T01:58:34.184Z,62.90
2017-04-08T01:59:33.441Z,62.70
2017-04-08T02:00:32.767Z,62.90
2017-04-08T02:01:32.073Z,63.10
2017-04-08T02:02:32.292Z,63.30
2017-04-08T02:03:32.297Z,63.10
2017-04-08T02:04:32.321Z,63.00
2017-04-08T02:05:32.593Z,62.90
2017-04-08T02:07:31.324Z,63.00
2017-04-08T02:08:31.018Z,63.50
2017-04-08T02:09:31.007Z,62.90
2017-04-08T02:10:31.017Z,63.00
2017-04-08T02:11:31.058Z,63.00
2017-04-08T02:12:30.490Z,63.40
2017-04-08T02:13:29.767Z,63.10
2017-04-08T02:14:29.008Z,63.20
2017-04-08T02:15:28.268Z,63.70
2017-04-08T02:16:27.538Z,63.60
2017-04-08T02:17:26.909Z,63.00
2017-04-08T02:18:26.144Z,63.00
2017-04-08T02:19:25.406Z,63.10
2017-04-08T02:20:24.649Z,63.40
2017-04-08T02:21:24.694Z,63.50
2017-04-08T02:22:24.013Z,63.40
2017-04-08T02:23:23.638Z,63.40
2017-04-08T02:24:23.729Z,63.40
2017-04-08T02:25:22.972Z,63.50
2017-04-08T02:26:22.309Z,63.60
2017-04-08T02:27:21.587Z,63.70
2017-04-08T02:28:20.904Z,64.10
2017-04-08T02:29:20.165Z,63.80
2017-04-08T02:30:19.437Z,63.90
2017-04-08T02:31:18.689Z,64.20
2017-04-08T02:32:18.733Z,64.50
2017-04-08T02:33:17.983Z,64.60
2017-04-08T02:34:17.981Z,64.80
2017-04-08T02:35:18.295Z,64.60
2017-04-08T02:36:18.305Z,65.30
2017-04-08T02:37:18.438Z,65.50
2017-04-08T02:38:17.698Z,65.20
2017-04-08T02:39:16.957Z,65.30
2017-04-08T02:40:16.208Z,65.10
2017-04-08T02:41:15.498Z,65.20
2017-04-08T02:42:14.806Z,65.90
2017-04-08T02:43:14.182Z,64.90
2017-04-08T02:44:13.417Z,64.90
2017-04-08T02:45:12.725Z,64.50
2017-04-08T02:46:12.040Z,64.50
2017-04-08T02:47:12.143Z,64.60
2017-04-08T02:48:12.173Z,64.60
2017-04-08T02:49:11.428Z,64.70
2017-04-08T02:50:10.679Z,64.90
2017-04-08T02:51:09.923Z,65.10
2017-04-08T02:52:09.909Z,65.20
2017-04-08T02:53:09.409Z,65.10
2017-04-08T02:54:08.671Z,65.10
2017-04-08T02:55:07.943Z,65.20
2017-04-08T02:56:07.217Z,65.60
2017-04-08T02:57:06.468Z,65.80
2017-04-08T02:58:05.746Z,66.20
2017-04-08T02:59:05.192Z,65.90
2017-04-08T03:00:04.458Z,66.20
2017-04-08T03:01:04.563Z,67.10
2017-04-08T03:02:04.605Z,67.10
2017-04-08T03:03:03.955Z,66.70
2017-04-08T03:04:03.196Z,66.50
2017-04-08T03:05:02.486Z,67.00
2017-04-08T03:06:01.797Z,66.50
2017-04-08T03:07:01.089Z,66.40
2017-04-08T03:08:00.350Z,67.00
2017-04-08T03:08:59.590Z,67.10
2017-04-08T03:09:58.858Z,67.00
2017-04-08T03:10:58.573Z,67.00
2017-04-08T03:11:57.824Z,66.50
2017-04-08T03:12:57.077Z,66.60
2017-04-08T03:13:57.070Z,66.70
2017-04-08T03:14:56.315Z,66.70
2017-04-08T03:15:55.525Z,66.40
2017-04-08T03:16:55.054Z,66.30
2017-04-08T03:17:55.047Z,66.20
2017-04-08T03:18:54.295Z,66.00
2017-04-08T03:19:53.549Z,65.90
2017-04-08T03:20:53.573Z,66.00
2017-04-08T03:21:52.832Z,65.90
2017-04-08T03:22:52.134Z,65.90
2017-04-08T03:23:52.162Z,65.90
2017-04-08T03:24:51.459Z,65.90
2017-04-08T03:25:50.720Z,65.80
2017-04-08T03:26:50.816Z,65.90
2017-04-08T03:27:50.135Z,66.00
2017-04-08T03:28:50.144Z,66.00
2017-04-08T03:29:50.389Z,65.60
2017-04-08T03:30:49.634Z,65.90
2017-04-08T03:31:49.618Z,66.00
2017-04-08T03:32:48.869Z,66.00
2017-04-08T03:33:48.154Z,66.10
2017-04-08T03:34:47.688Z,66.30
2017-04-08T03:35:47.074Z,66.90
2017-04-08T03:36:46.321Z,66.60
2017-04-08T03:37:45.578Z,67.00
2017-04-08T03:38:44.829Z,67.00
2017-04-08T03:39:44.094Z,67.10
2017-04-08T03:40:43.369Z,67.10
2017-04-08T03:41:43.393Z,67.10
2017-04-08T03:42:42.649Z,67.80
2017-04-08T03:43:42.635Z,67.40
2017-04-08T03:44:41.935Z,67.80
2017-04-08T03:45:41.170Z,68.60
2017-04-08T03:46:40.474Z,68.70
2017-04-08T03:47:39.757Z,69.60
2017-04-08T03:48:38.997Z,70.10
2017-04-08T03:49:38.249Z,70.20
2017-04-08T03:50:37.481Z,69.00
2017-04-08T03:51:36.744Z,69.70
2017-04-08T03:52:36.359Z,69.50
2017-04-08T03:53:35.638Z,70.30
2017-04-08T03:54:34.917Z,70.50
2017-04-08T03:55:34.150Z,69.40
2017-04-08T03:56:34.143Z,70.40
2017-04-08T03:57:33.394Z,69.60
2017-04-08T03:58:32.674Z,70.40
2017-04-08T03:59:31.931Z,68.60
2017-04-08T04:00:31.989Z,69.40
2017-04-08T04:01:31.267Z,69.20
2017-04-08T04:02:30.538Z,69.00
2017-04-08T04:03:29.793Z,69.40
2017-04-08T04:04:29.083Z,68.70
2017-04-08T04:05:28.341Z,69.10
2017-04-08T04:06:27.584Z,70.30
2017-04-08T04:07:27.565Z,69.20
2017-04-08T04:08:26.807Z,69.00
2017-04-08T04:09:26.053Z,69.50
2017-04-08T04:10:25.633Z,69.00
2017-04-08T04:11:25.642Z,69.10
2017-04-08T04:12:24.877Z,68.90
2017-04-08T04:13:24.128Z,69.10
2017-04-08T04:14:23.383Z,68.90
2017-04-08T04:15:22.625Z,69.20
2017-04-08T04:16:22.721Z,69.70
2017-04-08T04:17:21.997Z,69.80
2017-04-08T04:18:21.301Z,69.20
2017-04-08T04:19:20.540Z,70.20
2017-04-08T04:20:19.843Z,69.40
2017-04-08T04:21:19.137Z,69.20
2017-04-08T04:22:18.514Z,69.10
2017-04-08T04:23:17.761Z,69.50
2017-04-08T04:24:17.013Z,68.60
2017-04-08T04:25:16.279Z,68.30
2017-04-08T04:26:15.520Z,68.70
2017-04-08T04:27:14.770Z,68.00
2017-04-08T04:28:14.298Z,67.90
2017-04-08T04:29:13.550Z,67.90
2017-04-08T04:30:12.822Z,67.90
2017-04-08T04:31:12.804Z,67.80
2017-04-08T04:32:12.789Z,68.10
2017-04-08T04:33:12.018Z,67.80
2017-04-08T04:34:12.105Z,68.20
2017-04-08T04:35:11.389Z,67.70
2017-04-08T04:36:10.678Z,67.50
2017-04-08T04:37:09.938Z,67.60
2017-04-08T04:38:09.211Z,67.60
2017-04-08T04:39:08.757Z,68.00
2017-04-08T04:40:08.038Z,67.80
2017-04-08T04:41:07.278Z,67.50
2017-04-08T04:42:06.532Z,67.60
2017-04-08T04:43:05.868Z,67.80
2017-04-08T04:44:05.148Z,67.80
2017-04-08T04:45:04.455Z,67.50
2017-04-08T04:46:03.991Z,67.80
2017-04-08T04:47:03.266Z,67.80
2017-04-08T04:48:02.509Z,68.10
2017-04-08T04:49:01.754Z,68.40
2017-04-08T04:50:01.014Z,67.80
2017-04-08T04:51:00.258Z,67.50
2017-04-08T04:52:00.570Z,67.60
2017-04-08T04:53:00.578Z,67.60
2017-04-08T04:54:00.585Z,68.50
2017-04-08T04:55:00.579Z,68.00
2017-04-08T04:55:59.832Z,68.30
2017-04-08T04:56:59.078Z,68.90
2017-04-08T04:57:59.394Z,69.10
2017-04-08T04:58:59.408Z,69.40
2017-04-08T04:59:59.417Z,69.80
2017-04-08T05:00:59.417Z,69.40
2017-04-08T05:01:59.414Z,69.70
2017-04-08T05:02:59.463Z,69.70
2017-04-08T05:03:58.821Z,70.30
2017-04-08T05:04:58.821Z,70.90
2017-04-08T05:05:58.066Z,69.70
2017-04-08T05:06:57.333Z,70.20
2017-04-08T05:07:56.586Z,71.20
2017-04-08T05:08:56.283Z,70.20
2017-04-08T05:09:55.542Z,69.60
2017-04-08T05:10:54.809Z,69.60
2017-04-08T05:11:54.058Z,70.10
2017-04-08T05:12:53.297Z,69.30
2017-04-08T05:13:52.558Z,69.70
2017-04-08T05:14:51.903Z,69.70
2017-04-08T05:15:51.141Z,69.80
2017-04-08T05:16:50.361Z,69.60
2017-04-08T05:17:49.594Z,69.40
2017-04-08T05:18:48.874Z,69.60
2017-04-08T05:19:48.133Z,69.20
2017-04-08T05:20:47.401Z,69.00
2017-04-08T05:21:46.663Z,69.20
2017-04-08T05:22:46.642Z,69.20
2017-04-08T05:23:45.891Z,68.60
2017-04-08T05:24:45.138Z,68.70
2017-04-08T05:25:44.373Z,68.70
2017-04-08T05:26:43.921Z,68.90
2017-04-08T05:27:43.174Z,68.80
2017-04-08T05:28:42.425Z,68.90
2017-04-08T05:29:42.579Z,69.10
2017-04-08T05:30:41.882Z,68.70
2017-04-08T05:31:41.146Z,68.70
2017-04-08T05:32:40.486Z,68.80
2017-04-08T05:33:39.724Z,68.60
2017-04-08T05:34:38.982Z,68.50
2017-04-08T05:35:39.035Z,68.50
2017-04-08T05:36:38.318Z,68.50
2017-04-08T05:37:37.573Z,68.50
2017-04-08T05:38:37.668Z,68.20
2017-04-08T05:39:37.602Z,68.00
2017-04-08T05:40:37.735Z,68.20
2017-04-08T05:41:37.112Z,68.50
2017-04-08T05:42:36.521Z,68.40
2017-04-08T05:43:35.779Z,68.10
2017-04-08T05:44:36.069Z,67.90
2017-04-08T05:45:35.302Z,67.80
2017-04-08T05:46:34.542Z,67.30
2017-04-08T05:47:33.774Z,67.30
2017-04-08T05:48:33.046Z,67.30
2017-04-08T05:49:33.105Z,67.40
2017-04-08T05:50:32.395Z,67.40
2017-04-08T05:51:31.649Z,67.40
2017-04-08T05:52:30.901Z,68.40
2017-04-08T05:53:30.152Z,67.50
2017-04-08T05:54:29.400Z,67.50
2017-04-08T05:55:29.407Z,67.00
2017-04-08T05:56:29.714Z,66.40
2017-04-08T05:57:29.777Z,66.50
2017-04-08T05:58:29.025Z,67.40
2017-04-08T05:59:29.046Z,66.80
2017-04-08T06:00:29.136Z,66.80
2017-04-08T06:01:29.194Z,66.50
2017-04-08T06:02:28.546Z,66.40
2017-04-08T06:03:28.539Z,67.30
2017-04-08T06:04:27.785Z,66.60
2017-04-08T06:05:27.066Z,66.60
2017-04-08T06:06:26.369Z,66.90
2017-04-08T06:07:25.620Z,66.40
2017-04-08T06:08:25.902Z,66.80
2017-04-08T06:09:25.152Z,66.20
2017-04-08T06:10:24.418Z,65.60
2017-04-08T06:11:23.689Z,65.50
2017-04-08T06:12:23.675Z,65.40
2017-04-08T06:13:22.929Z,65.40
2017-04-08T06:14:22.211Z,65.30
2017-04-08T06:15:21.506Z,65.00
2017-04-08T06:16:20.760Z,65.20
2017-04-08T06:17:20.825Z,65.00
2017-04-08T06:18:20.067Z,64.40
2017-04-08T06:19:20.094Z,64.70
2017-04-08T06:20:19.641Z,64.60
2017-04-08T06:21:18.897Z,64.70
2017-04-08T06:22:18.401Z,64.70
2017-04-08T06:23:17.648Z,64.60
2017-04-08T06:24:17.918Z,64.50
2017-04-08T06:25:17.162Z,64.20
2017-04-08T06:26:16.483Z,64.70
2017-04-08T06:27:15.757Z,63.90
2017-04-08T06:28:14.978Z,63.90
2017-04-08T06:29:14.235Z,63.60
2017-04-08T06:30:13.475Z,63.60
2017-04-08T06:31:12.741Z,63.00
2017-04-08T06:32:12.361Z,62.10
2017-04-08T06:33:11.614Z,61.80
2017-04-08T06:34:10.864Z,61.50
2017-04-08T06:35:10.935Z,61.40
2017-04-08T06:36:10.883Z,61.40
2017-04-08T06:37:11.051Z,61.30
2017-04-08T06:38:10.367Z,61.20
2017-04-08T06:39:10.377Z,61.80
2017-04-08T06:40:10.353Z,61.30
2017-04-08T06:41:09.617Z,61.80
2017-04-08T06:42:08.861Z,61.80
2017-04-08T06:43:08.850Z,61.40
2017-04-08T06:44:08.134Z,61.90
2017-04-08T06:45:07.402Z,61.60
2017-04-08T06:46:06.673Z,61.80
2017-04-08T06:47:05.922Z,61.80
2017-04-08T06:48:05.174Z,62.00
2017-04-08T06:49:04.445Z,61.70
2017-04-08T06:50:03.784Z,62.00
2017-04-08T06:51:03.052Z,61.60
2017-04-08T06:52:02.293Z,61.50
2017-04-08T06:53:02.277Z,61.60
2017-04-08T06:54:01.500Z,61.30
2017-04-08T06:55:01.506Z,60.90
2017-04-08T06:56:01.534Z,60.70
2017-04-08T06:57:00.815Z,60.70
2017-04-08T06:58:00.064Z,60.40
2017-04-08T06:58:59.314Z,60.40
2017-04-08T06:59:58.586Z,59.80
2017-04-08T07:00:57.981Z,59.70
2017-04-08T07:01:57.470Z,59.30
2017-04-08T07:02:56.742Z,58.90
2017-04-08T07:03:56.811Z,58.80
2017-04-08T07:04:56.072Z,58.90
2017-04-08T07:05:55.425Z,58.90
2017-04-08T07:06:55.505Z,58.40
2017-04-08T07:07:54.805Z,58.20
2017-04-08T07:08:54.061Z,58.10
2017-04-08T07:09:53.349Z,57.50
2017-04-08T07:10:52.603Z,57.00
2017-04-08T07:11:52.651Z,57.00
2017-04-08T07:12:51.906Z,56.80
2017-04-08T07:13:52.190Z,57.20
2017-04-08T07:14:51.498Z,57.20
2017-04-08T07:15:51.609Z,56.40
2017-04-08T07:16:51.609Z,57.30
2017-04-08T07:17:50.877Z,57.10
2017-04-08T07:18:50.126Z,56.90
2017-04-08T07:19:49.414Z,55.70
2017-04-08T07:20:48.690Z,55.50
2017-04-08T07:21:48.786Z,55.80
2017-04-08T07:22:48.805Z,55.90
2017-04-08T07:23:48.798Z,55.40
2017-04-08T07:24:48.802Z,55.30
2017-04-08T07:25:49.107Z,56.00
2017-04-08T07:26:48.354Z,55.90
2017-04-08T07:27:47.609Z,55.90
2017-04-08T07:28:47.654Z,56.30
2017-04-08T07:29:49.602Z,56.20
2017-04-08T07:30:48.915Z,55.20
2017-04-08T07:31:48.383Z,54.80
2017-04-08T07:32:47.641Z,54.90
2017-04-08T07:33:47.698Z,55.20
2017-04-08T07:34:47.011Z,55.40
2017-04-08T07:35:46.317Z,55.40
2017-04-08T07:36:45.703Z,54.90
2017-04-08T07:37:44.987Z,55.00
2017-04-08T07:38:44.231Z,54.70
2017-04-08T07:39:43.589Z,54.80
2017-04-08T07:40:43.616Z,54.20
2017-04-08T07:41:43.689Z,54.00
2017-04-08T07:42:42.987Z,53.30
2017-04-08T07:43:42.227Z,53.00
2017-04-08T07:44:41.506Z,52.70
2017-04-08T07:45:40.801Z,52.40
2017-04-08T07:46:40.082Z,52.10
2017-04-08T07:47:40.134Z,51.80
2017-04-08T07:48:39.445Z,52.10
2017-04-08T07:49:38.801Z,51.70
2017-04-08T07:50:38.173Z,53.00
2017-04-08T07:51:37.476Z,52.30
2017-04-08T07:52:36.755Z,52.20
2017-04-08T07:53:36.025Z,51.80
2017-04-08T07:54:36.113Z,52.00
2017-04-08T07:55:35.392Z,52.00
2017-04-08T07:56:34.657Z,51.80
2017-04-08T07:57:33.922Z,51.80
2017-04-08T07:58:33.182Z,51.30
2017-04-08T07:59:32.656Z,51.70
2017-04-08T08:00:31.905Z,51.30
2017-04-08T08:01:31.174Z,51.30
2017-04-08T08:02:31.196Z,52.20
2017-04-08T08:03:30.466Z,51.90
2017-04-08T08:04:30.487Z,51.40
2017-04-08T08:05:30.507Z,51.50
2017-04-08T08:06:29.757Z,50.90
2017-04-08T08:07:29.017Z,50.70
2017-04-08T08:08:28.427Z,49.80
2017-04-08T08:09:27.745Z,49.40
2017-04-08T08:10:27.774Z,48.40
2017-04-08T08:11:27.115Z,48.20
2017-04-08T08:12:26.386Z,47.10
2017-04-08T08:13:25.647Z,46.80
2017-04-08T08:14:24.924Z,46.90
2017-04-08T08:15:24.187Z,47.70
2017-04-08T08:16:23.508Z,46.70
2017-04-08T08:17:22.777Z,46.10
2017-04-08T08:18:22.016Z,45.20
2017-04-08T08:19:21.334Z,45.30
2017-04-08T08:20:20.609Z,45.40
2017-04-08T08:21:19.886Z,45.50
2017-04-08T08:22:19.638Z,44.50
2017-04-08T08:23:18.978Z,45.00
2017-04-08T08:24:18.255Z,45.30
2017-04-08T08:25:17.502Z,45.00
2017-04-08T08:26:16.757Z,45.40
2017-04-08T08:27:16.038Z,45.80
2017-04-08T08:28:15.369Z,46.20
2017-04-08T08:29:14.681Z,46.00
2017-04-08T08:30:14.721Z,46.10
2017-04-08T08:31:14.077Z,46.60
2017-04-08T08:32:13.354Z,46.00
2017-04-08T08:33:12.701Z,46.80
2017-04-08T08:34:12.377Z,45.90
2017-04-08T08:35:11.634Z,45.60
2017-04-08T08:36:10.967Z,45.60
2017-04-08T08:37:10.245Z,45.50
2017-04-08T08:38:10.771Z,45.40
2017-04-08T08:39:10.075Z,45.70
2017-04-08T08:40:09.378Z,43.50
2017-04-08T08:41:08.665Z,43.70
2017-04-08T08:42:07.983Z,41.90
2017-04-08T08:43:07.280Z,42.10
2017-04-08T08:44:06.546Z,41.60
2017-04-08T08:45:05.978Z,41.50
2017-04-08T08:46:06.139Z,41.00
2017-04-08T08:47:05.444Z,41.00
2017-04-08T08:48:04.740Z,40.70
2017-04-08T08:49:04.256Z,40.00
2017-04-08T08:50:03.643Z,39.10
2017-04-08T08:51:03.023Z,38.90
2017-04-08T08:52:02.312Z,38.50
2017-04-08T08:53:01.570Z,38.60
2017-04-08T08:54:00.918Z,38.90
2017-04-08T08:55:00.204Z,37.60
2017-04-08T08:55:59.489Z,37.30
2017-04-08T08:56:58.789Z,37.90
2017-04-08T08:57:58.095Z,38.50
2017-04-08T08:58:57.416Z,38.90
2017-04-08T08:59:56.729Z,39.10
2017-04-08T09:00:56.002Z,37.70
2017-04-08T09:01:55.314Z,37.10
2017-04-08T09:02:54.598Z,37.30
2017-04-08T09:03:53.847Z,38.20
2017-04-08T09:04:53.856Z,38.20
2017-04-08T09:05:54.039Z,39.00
2017-04-08T09:06:53.565Z,38.50
2017-04-08T09:07:53.587Z,38.60
2017-04-08T09:08:53.162Z,40.10
2017-04-08T09:09:53.175Z,40.80
2017-04-08T09:10:53.230Z,40.70
2017-04-08T09:11:52.555Z,41.10
2017-04-08T09:12:51.809Z,40.30
2017-04-08T09:13:51.077Z,39.80
2017-04-08T09:14:50.394Z,39.70
2017-04-08T09:15:49.639Z,40.60
2017-04-08T09:16:49.923Z,40.60
2017-04-08T09:17:49.170Z,41.10
2017-04-08T09:18:48.494Z,41.10
2017-04-08T09:19:47.764Z,41.90
2017-04-08T09:20:47.299Z,41.10
2017-04-08T09:21:46.581Z,40.40
2017-04-08T09:22:45.938Z,41.10
2017-04-08T09:23:45.206Z,41.00
2017-04-08T09:24:44.466Z,41.10
2017-04-08T09:25:43.925Z,41.00
2017-04-08T09:26:43.302Z,41.60
2017-04-08T09:27:42.595Z,41.70
2017-04-08T09:28:42.106Z,41.50
2017-04-08T09:29:41.375Z,40.60
2017-04-08T09:30:40.713Z,40.50
2017-04-08T09:31:39.977Z,41.00
2017-04-08T09:32:39.604Z,40.70
2017-04-08T09:33:38.927Z,41.00
2017-04-08T09:34:39.069Z,41.20
2017-04-08T09:35:38.318Z,40.30
2017-04-08T09:36:38.582Z,40.40
2017-04-08T09:37:37.872Z,39.50
2017-04-08T09:38:37.159Z,39.80
2017-04-08T09:39:36.428Z,41.10
2017-04-08T09:40:35.682Z,40.80
2017-04-08T09:41:35.697Z,41.80
2017-04-08T09:42:35.818Z,41.40
2017-04-08T09:43:35.826Z,42.00
2017-04-08T09:44:36.113Z,41.90
2017-04-08T09:45:35.377Z,42.60
2017-04-08T09:46:34.667Z,42.10
2017-04-08T09:47:34.227Z,41.50
2017-04-08T09:48:33.492Z,41.90
2017-04-08T09:49:34.036Z,40.70
2017-04-08T09:50:33.514Z,40.60
2017-04-08T09:51:33.590Z,39.90
2017-04-08T09:52:32.935Z,39.60
2017-04-08T09:53:32.375Z,39.00
2017-04-08T09:55:31.326Z,39.40
2017-04-08T09:56:30.826Z,39.30
2017-04-08T09:57:30.147Z,39.60
2017-04-08T09:58:29.394Z,39.60
2017-04-08T09:59:28.650Z,40.20
2017-04-08T10:00:28.013Z,40.80
2017-04-08T10:01:27.416Z,40.80
2017-04-08T10:02:27.065Z,41.50
2017-04-08T10:03:26.716Z,41.30
2017-04-08T10:04:26.011Z,41.30
2017-04-08T10:05:25.489Z,41.50
2017-04-08T10:06:25.016Z,42.30
2017-04-08T10:07:24.516Z,41.60
2017-04-08T10:08:24.633Z,41.70
2017-04-08T10:09:24.701Z,41.70
2017-04-08T10:10:23.959Z,41.70
2017-04-08T10:11:23.269Z,41.00
2017-04-08T10:12:22.542Z,41.20
2017-04-08T10:13:21.790Z,40.80
2017-04-08T10:14:21.634Z,39.70
2017-04-08T10:15:20.901Z,39.00
2017-04-08T10:16:20.925Z,39.30
2017-04-08T10:17:20.185Z,39.50
2017-04-08T10:18:20.229Z,39.60
2017-04-08T10:19:19.486Z,40.90
2017-04-08T10:20:19.782Z,41.50
2017-04-08T10:21:19.034Z,42.20
2017-04-08T10:22:18.610Z,44.10
2017-04-08T10:23:17.879Z,44.70
2017-04-08T10:24:17.136Z,45.10
2017-04-08T10:25:16.402Z,45.00
2017-04-08T10:26:15.954Z,45.50
2017-04-08T10:27:15.221Z,44.80
2017-04-08T10:28:14.515Z,45.50
2017-04-08T10:29:13.783Z,46.00
2017-04-08T10:30:13.057Z,46.60
2017-04-08T10:31:12.326Z,45.70
2017-04-08T10:32:12.811Z,45.80
2017-04-08T10:33:12.106Z,45.00
2017-04-08T10:34:11.346Z,45.20
2017-04-08T10:35:10.608Z,44.10
2017-04-08T10:36:10.609Z,43.90
2017-04-08T10:37:10.811Z,44.60
2017-04-08T10:38:10.401Z,42.30
2017-04-08T10:39:09.657Z,42.10
2017-04-08T10:40:08.974Z,41.20
2017-04-08T10:41:08.231Z,41.40
2017-04-08T10:42:07.648Z,41.60
2017-04-08T10:43:06.917Z,40.90
2017-04-08T10:44:06.426Z,38.80
2017-04-08T10:45:05.727Z,38.40
2017-04-08T10:46:04.976Z,38.50
2017-04-08T10:47:04.242Z,37.60
2017-04-08T10:48:04.303Z,38.10
2017-04-08T10:49:03.582Z,38.20
2017-04-08T10:50:02.909Z,37.90
2017-04-08T10:51:02.189Z,36.20
2017-04-08T10:52:01.445Z,36.50
2017-04-08T10:53:00.744Z,34.80
2017-04-08T10:54:00.017Z,35.10
2017-04-08T10:54:59.278Z,35.40
2017-04-08T10:55:59.572Z,34.10
2017-04-08T10:56:58.835Z,34.80
2017-04-08T10:57:58.102Z,34.40
2017-04-08T10:58:57.375Z,34.10
2017-04-08T10:59:57.414Z,34.10
2017-04-08T11:00:56.676Z,34.60
2017-04-08T11:01:56.928Z,34.80
2017-04-08T11:02:56.179Z,35.40
2017-04-08T11:03:56.176Z,35.90
2017-04-08T11:04:56.170Z,35.20
2017-04-08T11:05:56.222Z,36.20
2017-04-08T11:06:55.477Z,35.00
2017-04-08T11:07:55.627Z,36.00
2017-04-08T11:08:54.869Z,35.10
2017-04-08T11:09:54.868Z,35.80
2017-04-08T11:10:54.101Z,35.20
2017-04-08T11:11:53.348Z,34.70
2017-04-08T11:12:52.609Z,34.20
2017-04-08T11:13:51.877Z,33.60
2017-04-08T11:14:51.176Z,33.70
2017-04-08T11:15:50.478Z,33.30
2017-04-08T11:16:49.751Z,33.40
2017-04-08T11:17:49.049Z,33.80
2017-04-08T11:18:48.322Z,32.60
2017-04-08T11:19:47.874Z,33.10
2017-04-08T11:20:47.146Z,32.70
2017-04-08T11:21:46.417Z,32.80
2017-04-08T11:22:46.414Z,32.80
2017-04-08T11:23:45.677Z,33.10
2017-04-08T11:24:45.686Z,33.00
2017-04-08T11:25:45.746Z,33.00
2017-04-08T11:26:45.753Z,33.10
2017-04-08T11:27:45.006Z,33.90
2017-04-08T11:28:44.270Z,34.20
2017-04-08T11:29:44.262Z,33.80
2017-04-08T11:30:43.578Z,33.90
2017-04-08T11:31:43.869Z,35.20
2017-04-08T11:32:43.138Z,36.10
2017-04-08T11:33:42.395Z,36.30
2017-04-08T11:34:41.665Z,36.80
2017-04-08T11:35:42.084Z,37.90
2017-04-08T11:36:41.399Z,37.90
2017-04-08T11:37:40.692Z,38.00
2017-04-08T11:38:40.037Z,38.30
2017-04-08T11:39:39.293Z,36.90
2017-04-08T11:40:38.680Z,36.10
2017-04-08T11:41:37.934Z,36.60
2017-04-08T11:42:37.999Z,34.80
2017-04-08T11:43:37.289Z,34.60
2017-04-08T11:44:36.537Z,34.40
2017-04-08T11:45:35.844Z,35.70
2017-04-08T11:46:35.159Z,33.90
2017-04-08T11:47:34.665Z,34.00
2017-04-08T11:48:33.930Z,34.10
2017-04-08T11:49:33.681Z,33.10
2017-04-08T11:50:33.708Z,34.20
2017-04-08T11:51:32.965Z,32.90
2017-04-08T11:52:32.208Z,32.50
2017-04-08T11:53:31.476Z,32.50
2017-04-08T11:54:30.726Z,31.70
2017-04-08T11:55:30.334Z,31.60
2017-04-08T11:56:29.596Z,31.50
2017-04-08T11:57:28.867Z,32.60
2017-04-08T11:58:28.122Z,31.50
2017-04-08T11:59:28.117Z,31.80
2017-04-08T12:00:28.146Z,32.10
2017-04-08T12:01:27.434Z,31.60
2017-04-08T12:02:26.713Z,31.90
2017-04-08T12:03:26.875Z,30.90
2017-04-08T12:04:26.129Z,31.20
2017-04-08T12:05:25.429Z,31.60
2017-04-08T12:06:24.709Z,31.40
2017-04-08T12:07:24.238Z,31.10
2017-04-08T12:08:23.718Z,31.30
2017-04-08T12:09:22.966Z,32.00
2017-04-08T12:10:23.115Z,34.00
2017-04-08T12:11:22.700Z,33.20
2017-04-08T12:12:21.947Z,32.30
2017-04-08T12:13:21.555Z,34.00
2017-04-08T12:14:20.851Z,33.10
2017-04-08T12:15:20.122Z,33.70
2017-04-08T12:16:19.389Z,32.90
2017-04-08T12:17:18.657Z,32.70
2017-04-08T12:18:17.942Z,33.30
2017-04-08T12:19:17.305Z,33.30
2017-04-08T12:20:17.390Z,34.10
2017-04-08T12:21:16.638Z,33.10
2017-04-08T12:22:15.885Z,32.80
2017-04-08T12:23:15.146Z,33.10
2017-04-08T12:24:14.411Z,31.80
2017-04-08T12:25:14.058Z,31.60
2017-04-08T12:26:13.361Z,31.60
2017-04-08T12:27:12.637Z,32.10
2017-04-08T12:28:11.896Z,31.60
2017-04-08T12:29:11.174Z,31.70
2017-04-08T12:30:10.425Z,31.30
2017-04-08T12:31:09.713Z,31.40
2017-04-08T12:32:08.989Z,31.50
2017-04-08T12:33:08.227Z,31.80
2017-04-08T12:34:07.482Z,33.00
2017-04-08T12:35:07.495Z,31.40
2017-04-08T12:36:07.490Z,31.60
2017-04-08T12:37:07.090Z,31.60
2017-04-08T12:38:06.379Z,31.50
2017-04-08T12:39:05.768Z,31.00
2017-04-08T12:40:05.026Z,31.20
2017-04-08T12:41:04.377Z,30.90
2017-04-08T12:42:04.362Z,31.80
2017-04-08T12:43:03.948Z,31.10
2017-04-08T12:44:03.529Z,30.30
2017-04-08T12:45:02.790Z,30.50
2017-04-08T12:46:02.032Z,31.00
2017-04-08T12:47:01.289Z,31.20
2017-04-08T12:48:00.550Z,31.20